Terminal Aerodrome Forecast
Issued by NWS

Current Version | Previous Version | Graphics & Text | Print | Product List | Glossary On
Versions: 1 2 3 4 5 6 7 8 9 10 11 12 13 14 15 16 17 18 19 20 21
000
FTUS41 KPBZ 141900 AAA
TAFHLG
TAF AMD
KHLG 141955Z 1420/1518 21015G27KT 4SM -SHRA OVC025
     FM142100 24012G25KT P6SM -SHRA BKN025
     FM150700 30012KT 3SM -SHRA OVC010
     FM151400 32015G25KT 4SM -SHSN OVC010=

USA.gov is the U.S. government's official web portal to all federal, state and local government web resources and services.